sensor_id;sensor_type;location;lat;lon;timestamp;P1;durP1;ratioP1;P2;durP2;ratioP2
30472;SDS011;17263;48.160;11.452;2024-01-16T00:00:07;4.00;;;3.03;;
30472;SDS011;17263;48.160;11.452;2024-01-16T00:02:34;4.67;;;3.10;;
30472;SDS011;17263;48.160;11.452;2024-01-16T00:05:00;3.63;;;2.70;;
30472;SDS011;17263;48.160;11.452;2024-01-16T00:07:26;7.20;;;4.10;;
30472;SDS011;17263;48.160;11.452;2024-01-16T00:09:52;7.23;;;4.80;;
30472;SDS011;17263;48.160;11.452;2024-01-16T00:12:20;4.40;;;3.27;;
30472;SDS011;17263;48.160;11.452;2024-01-16T00:14:46;4.00;;;3.10;;
30472;SDS011;17263;48.160;11.452;2024-01-16T00:17:12;3.40;;;2.73;;
30472;SDS011;17263;48.160;11.452;2024-01-16T00:19:38;4.13;;;2.83;;
30472;SDS011;17263;48.160;11.452;2024-01-16T00:22:05;4.50;;;2.93;;
30472;SDS011;17263;48.160;11.452;2024-01-16T00:24:31;5.57;;;3.40;;
30472;SDS011;17263;48.160;11.452;2024-01-16T00:26:57;4.17;;;3.13;;
30472;SDS011;17263;48.160;11.452;2024-01-16T00:29:23;4.33;;;2.90;;
30472;SDS011;17263;48.160;11.452;2024-01-16T00:31:50;3.83;;;2.83;;
30472;SDS011;17263;48.160;11.452;2024-01-16T00:34:16;4.27;;;3.07;;
30472;SDS011;17263;48.160;11.452;2024-01-16T00:36:42;4.50;;;3.00;;
30472;SDS011;17263;48.160;11.452;2024-01-16T00:39:08;3.97;;;2.90;;
30472;SDS011;17263;48.160;11.452;2024-01-16T00:41:35;4.30;;;2.90;;
30472;SDS011;17263;48.160;11.452;2024-01-16T00:44:01;3.30;;;2.70;;
30472;SDS011;17263;48.160;11.452;2024-01-16T00:46:27;3.37;;;2.60;;
30472;SDS011;17263;48.160;11.452;2024-01-16T00:48:53;4.47;;;2.93;;
30472;SDS011;17263;48.160;11.452;2024-01-16T00:51:19;4.00;;;3.03;;
30472;SDS011;17263;48.160;11.452;2024-01-16T00:53:45;3.30;;;2.67;;
30472;SDS011;17263;48.160;11.452;2024-01-16T00:56:11;4.63;;;2.77;;
30472;SDS011;17263;48.160;11.452;2024-01-16T00:58:38;3.10;;;2.70;;
30472;SDS011;17263;48.160;11.452;2024-01-16T01:01:04;3.87;;;2.70;;
30472;SDS011;17263;48.160;11.452;2024-01-16T01:03:30;3.53;;;2.60;;
30472;SDS011;17263;48.160;11.452;2024-01-16T01:05:56;4.23;;;2.90;;
30472;SDS011;17263;48.160;11.452;2024-01-16T01:08:23;4.73;;;2.97;;
30472;SDS011;17263;48.160;11.452;2024-01-16T01:10:49;3.20;;;2.70;;
30472;SDS011;17263;48.160;11.452;2024-01-16T01:13:15;4.70;;;3.00;;
30472;SDS011;17263;48.160;11.452;2024-01-16T01:15:41;3.87;;;2.93;;
30472;SDS011;17263;48.160;11.452;2024-01-16T01:18:07;4.30;;;2.70;;
30472;SDS011;17263;48.160;11.452;2024-01-16T01:20:33;4.37;;;2.73;;
30472;SDS011;17263;48.160;11.452;2024-01-16T01:22:59;3.60;;;2.70;;
30472;SDS011;17263;48.160;11.452;2024-01-16T01:25:25;3.60;;;2.60;;
30472;SDS011;17263;48.160;11.452;2024-01-16T01:27:51;3.77;;;2.83;;
30472;SDS011;17263;48.160;11.452;2024-01-16T01:30:17;3.47;;;2.87;;
30472;SDS011;17263;48.160;11.452;2024-01-16T01:32:43;4.27;;;2.83;;
30472;SDS011;17263;48.160;11.452;2024-01-16T01:35:09;4.17;;;2.60;;
30472;SDS011;17263;48.160;11.452;2024-01-16T01:37:37;4.50;;;2.93;;
30472;SDS011;17263;48.160;11.452;2024-01-16T01:40:03;3.27;;;2.80;;
30472;SDS011;17263;48.160;11.452;2024-01-16T01:42:30;3.30;;;2.60;;
30472;SDS011;17263;48.160;11.452;2024-01-16T01:44:56;4.37;;;2.83;;
30472;SDS011;17263;48.160;11.452;2024-01-16T01:47:22;3.57;;;2.57;;
30472;SDS011;17263;48.160;11.452;2024-01-16T01:49:48;3.50;;;2.93;;
30472;SDS011;17263;48.160;11.452;2024-01-16T01:52:14;3.73;;;2.60;;
30472;SDS011;17263;48.160;11.452;2024-01-16T01:54:41;4.43;;;2.80;;
30472;SDS011;17263;48.160;11.452;2024-01-16T01:57:07;3.10;;;2.77;;
30472;SDS011;17263;48.160;11.452;2024-01-16T01:59:34;3.90;;;2.60;;
30472;SDS011;17263;48.160;11.452;2024-01-16T02:02:01;5.27;;;2.90;;
30472;SDS011;17263;48.160;11.452;2024-01-16T02:04:30;3.50;;;2.47;;
30472;SDS011;17263;48.160;11.452;2024-01-16T02:06:57;4.20;;;2.67;;
30472;SDS011;17263;48.160;11.452;2024-01-16T02:09:23;4.30;;;2.40;;
30472;SDS011;17263;48.160;11.452;2024-01-16T02:11:49;2.67;;;2.40;;
30472;SDS011;17263;48.160;11.452;2024-01-16T02:14:15;4.53;;;2.40;;
30472;SDS011;17263;48.160;11.452;2024-01-16T02:16:42;2.93;;;2.40;;
30472;SDS011;17263;48.160;11.452;2024-01-16T02:19:10;3.63;;;2.27;;
30472;SDS011;17263;48.160;11.452;2024-01-16T02:21:37;3.93;;;2.90;;
30472;SDS011;17263;48.160;11.452;2024-01-16T02:24:13;3.80;;;2.53;;
30472;SDS011;17263;48.160;11.452;2024-01-16T02:26:42;3.43;;;2.40;;
30472;SDS011;17263;48.160;11.452;2024-01-16T02:29:08;3.00;;;2.30;;
30472;SDS011;17263;48.160;11.452;2024-01-16T02:31:34;3.83;;;2.30;;
30472;SDS011;17263;48.160;11.452;2024-01-16T02:34:01;3.47;;;2.13;;
30472;SDS011;17263;48.160;11.452;2024-01-16T02:36:27;3.17;;;2.80;;
30472;SDS011;17263;48.160;11.452;2024-01-16T02:38:56;2.87;;;2.50;;
30472;SDS011;17263;48.160;11.452;2024-01-16T02:41:22;3.07;;;2.10;;
30472;SDS011;17263;48.160;11.452;2024-01-16T02:43:49;4.57;;;2.60;;
30472;SDS011;17263;48.160;11.452;2024-01-16T02:46:15;4.87;;;2.63;;
30472;SDS011;17263;48.160;11.452;2024-01-16T02:48:41;4.60;;;2.70;;
30472;SDS011;17263;48.160;11.452;2024-01-16T02:51:08;3.50;;;2.50;;
30472;SDS011;17263;48.160;11.452;2024-01-16T02:53:34;3.53;;;2.63;;
30472;SDS011;17263;48.160;11.452;2024-01-16T02:56:00;4.40;;;2.73;;
30472;SDS011;17263;48.160;11.452;2024-01-16T02:58:27;4.07;;;2.40;;
30472;SDS011;17263;48.160;11.452;2024-01-16T03:00:53;4.60;;;3.03;;
30472;SDS011;17263;48.160;11.452;2024-01-16T03:03:20;3.10;;;2.47;;
30472;SDS011;17263;48.160;11.452;2024-01-16T03:05:46;3.07;;;2.67;;
30472;SDS011;17263;48.160;11.452;2024-01-16T03:08:13;3.00;;;2.50;;
30472;SDS011;17263;48.160;11.452;2024-01-16T03:10:39;3.30;;;2.70;;
30472;SDS011;17263;48.160;11.452;2024-01-16T03:13:05;4.37;;;2.70;;
30472;SDS011;17263;48.160;11.452;2024-01-16T03:15:31;3.63;;;2.60;;
30472;SDS011;17263;48.160;11.452;2024-01-16T03:18:00;4.37;;;2.77;;
30472;SDS011;17263;48.160;11.452;2024-01-16T03:20:27;3.97;;;2.53;;
30472;SDS011;17263;48.160;11.452;2024-01-16T03:22:53;2.97;;;2.67;;
30472;SDS011;17263;48.160;11.452;2024-01-16T03:25:20;3.43;;;2.57;;
30472;SDS011;17263;48.160;11.452;2024-01-16T03:27:47;3.30;;;2.80;;
30472;SDS011;17263;48.160;11.452;2024-01-16T03:30:13;5.53;;;2.67;;
30472;SDS011;17263;48.160;11.452;2024-01-16T03:32:39;4.13;;;2.43;;
30472;SDS011;17263;48.160;11.452;2024-01-16T03:35:05;4.87;;;2.80;;
30472;SDS011;17263;48.160;11.452;2024-01-16T03:37:32;3.13;;;2.40;;
30472;SDS011;17263;48.160;11.452;2024-01-16T03:39:58;3.37;;;2.50;;
30472;SDS011;17263;48.160;11.452;2024-01-16T03:42:24;4.57;;;2.90;;
30472;SDS011;17263;48.160;11.452;2024-01-16T03:44:51;5.03;;;2.70;;
30472;SDS011;17263;48.160;11.452;2024-01-16T03:47:17;3.87;;;2.83;;
30472;SDS011;17263;48.160;11.452;2024-01-16T03:49:43;4.43;;;2.97;;
30472;SDS011;17263;48.160;11.452;2024-01-16T03:52:09;5.07;;;2.87;;
30472;SDS011;17263;48.160;11.452;2024-01-16T03:54:35;3.63;;;2.80;;
30472;SDS011;17263;48.160;11.452;2024-01-16T03:57:01;3.83;;;2.53;;
30472;SDS011;17263;48.160;11.452;2024-01-16T03:59:27;3.27;;;2.20;;
30472;SDS011;17263;48.160;11.452;2024-01-16T04:01:53;3.10;;;2.20;;
30472;SDS011;17263;48.160;11.452;2024-01-16T04:04:19;2.90;;;2.50;;
30472;SDS011;17263;48.160;11.452;2024-01-16T04:06:45;4.10;;;2.70;;
30472;SDS011;17263;48.160;11.452;2024-01-16T04:09:11;3.90;;;2.87;;
30472;SDS011;17263;48.160;11.452;2024-01-16T04:11:40;3.90;;;3.27;;
30472;SDS011;17263;48.160;11.452;2024-01-16T04:14:06;7.10;;;2.63;;
30472;SDS011;17263;48.160;11.452;2024-01-16T04:16:32;3.70;;;2.60;;
30472;SDS011;17263;48.160;11.452;2024-01-16T04:18:58;4.67;;;2.90;;
30472;SDS011;17263;48.160;11.452;2024-01-16T04:21:24;3.53;;;2.60;;
30472;SDS011;17263;48.160;11.452;2024-01-16T04:23:51;3.97;;;3.00;;
30472;SDS011;17263;48.160;11.452;2024-01-16T04:26:17;4.43;;;2.70;;
30472;SDS011;17263;48.160;11.452;2024-01-16T04:28:43;5.27;;;2.83;;
30472;SDS011;17263;48.160;11.452;2024-01-16T04:31:09;5.60;;;3.10;;
30472;SDS011;17263;48.160;11.452;2024-01-16T04:33:37;5.27;;;3.30;;
30472;SDS011;17263;48.160;11.452;2024-01-16T04:36:04;3.53;;;2.70;;
30472;SDS011;17263;48.160;11.452;2024-01-16T04:38:31;5.17;;;2.90;;
30472;SDS011;17263;48.160;11.452;2024-01-16T04:40:57;4.33;;;2.60;;
30472;SDS011;17263;48.160;11.452;2024-01-16T04:43:26;3.53;;;2.93;;
30472;SDS011;17263;48.160;11.452;2024-01-16T04:45:52;4.73;;;3.13;;
30472;SDS011;17263;48.160;11.452;2024-01-16T04:48:18;4.43;;;2.90;;
30472;SDS011;17263;48.160;11.452;2024-01-16T04:50:44;7.20;;;4.00;;
30472;SDS011;17263;48.160;11.452;2024-01-16T04:53:10;9.00;;;4.53;;
30472;SDS011;17263;48.160;11.452;2024-01-16T04:55:37;9.83;;;4.83;;
30472;SDS011;17263;48.160;11.452;2024-01-16T04:58:03;7.07;;;4.43;;
30472;SDS011;17263;48.160;11.452;2024-01-16T05:00:29;8.57;;;4.20;;
30472;SDS011;17263;48.160;11.452;2024-01-16T05:02:55;6.90;;;4.00;;
30472;SDS011;17263;48.160;11.452;2024-01-16T05:05:21;6.07;;;3.70;;
30472;SDS011;17263;48.160;11.452;2024-01-16T05:07:47;5.73;;;3.70;;
30472;SDS011;17263;48.160;11.452;2024-01-16T05:10:13;4.57;;;3.37;;
30472;SDS011;17263;48.160;11.452;2024-01-16T05:12:39;5.77;;;3.60;;
30472;SDS011;17263;48.160;11.452;2024-01-16T05:15:06;7.93;;;3.83;;
30472;SDS011;17263;48.160;11.452;2024-01-16T05:17:32;8.43;;;5.00;;
30472;SDS011;17263;48.160;11.452;2024-01-16T05:19:59;7.97;;;5.00;;
30472;SDS011;17263;48.160;11.452;2024-01-16T05:22:25;6.57;;;4.20;;
30472;SDS011;17263;48.160;11.452;2024-01-16T05:24:51;6.57;;;3.63;;
30472;SDS011;17263;48.160;11.452;2024-01-16T05:27:17;3.70;;;3.10;;
30472;SDS011;17263;48.160;11.452;2024-01-16T05:29:43;5.50;;;3.53;;
30472;SDS011;17263;48.160;11.452;2024-01-16T05:32:09;3.77;;;2.83;;
30472;SDS011;17263;48.160;11.452;2024-01-16T05:34:36;4.00;;;2.80;;
30472;SDS011;17263;48.160;11.452;2024-01-16T05:37:02;5.67;;;3.40;;
30472;SDS011;17263;48.160;11.452;2024-01-16T05:39:28;4.40;;;2.70;;
30472;SDS011;17263;48.160;11.452;2024-01-16T05:41:54;4.17;;;2.67;;
30472;SDS011;17263;48.160;11.452;2024-01-16T05:44:20;4.40;;;3.00;;
30472;SDS011;17263;48.160;11.452;2024-01-16T05:46:46;5.37;;;3.07;;
30472;SDS011;17263;48.160;11.452;2024-01-16T05:49:12;5.37;;;3.10;;
30472;SDS011;17263;48.160;11.452;2024-01-16T05:51:38;6.10;;;2.83;;
30472;SDS011;17263;48.160;11.452;2024-01-16T05:54:04;5.33;;;2.93;;
30472;SDS011;17263;48.160;11.452;2024-01-16T05:56:31;5.57;;;3.40;;
30472;SDS011;17263;48.160;11.452;2024-01-16T05:58:57;4.40;;;2.50;;
30472;SDS011;17263;48.160;11.452;2024-01-16T06:01:23;7.40;;;3.40;;
30472;SDS011;17263;48.160;11.452;2024-01-16T06:03:49;3.63;;;2.80;;
30472;SDS011;17263;48.160;11.452;2024-01-16T06:06:15;5.60;;;3.20;;
30472;SDS011;17263;48.160;11.452;2024-01-16T06:08:42;3.40;;;3.07;;
30472;SDS011;17263;48.160;11.452;2024-01-16T06:11:08;4.37;;;2.97;;
30472;SDS011;17263;48.160;11.452;2024-01-16T06:13:34;4.30;;;3.23;;
30472;SDS011;17263;48.160;11.452;2024-01-16T06:16:00;6.00;;;2.90;;
30472;SDS011;17263;48.160;11.452;2024-01-16T06:18:26;4.57;;;2.67;;
30472;SDS011;17263;48.160;11.452;2024-01-16T06:20:52;4.87;;;3.20;;
30472;SDS011;17263;48.160;11.452;2024-01-16T06:23:18;5.57;;;3.43;;
30472;SDS011;17263;48.160;11.452;2024-01-16T06:25:44;5.50;;;3.47;;
30472;SDS011;17263;48.160;11.452;2024-01-16T06:28:10;6.87;;;3.67;;
30472;SDS011;17263;48.160;11.452;2024-01-16T06:30:36;4.70;;;3.70;;
30472;SDS011;17263;48.160;11.452;2024-01-16T06:33:02;6.20;;;3.90;;
30472;SDS011;17263;48.160;11.452;2024-01-16T06:35:28;6.00;;;4.17;;
30472;SDS011;17263;48.160;11.452;2024-01-16T06:37:55;6.27;;;4.47;;
30472;SDS011;17263;48.160;11.452;2024-01-16T06:40:21;8.33;;;4.63;;
30472;SDS011;17263;48.160;11.452;2024-01-16T06:42:47;8.17;;;4.33;;
30472;SDS011;17263;48.160;11.452;2024-01-16T06:45:13;5.67;;;3.43;;
30472;SDS011;17263;48.160;11.452;2024-01-16T06:47:41;6.70;;;4.00;;
30472;SDS011;17263;48.160;11.452;2024-01-16T06:50:07;7.10;;;3.60;;
30472;SDS011;17263;48.160;11.452;2024-01-16T06:52:33;6.57;;;3.47;;
30472;SDS011;17263;48.160;11.452;2024-01-16T06:55:00;6.77;;;3.67;;
30472;SDS011;17263;48.160;11.452;2024-01-16T06:57:26;4.60;;;3.57;;
30472;SDS011;17263;48.160;11.452;2024-01-16T06:59:52;5.60;;;3.70;;
30472;SDS011;17263;48.160;11.452;2024-01-16T07:02:19;6.80;;;3.70;;
30472;SDS011;17263;48.160;11.452;2024-01-16T07:04:45;6.13;;;3.83;;
30472;SDS011;17263;48.160;11.452;2024-01-16T07:07:11;7.17;;;3.80;;
30472;SDS011;17263;48.160;11.452;2024-01-16T07:09:37;7.23;;;3.80;;
30472;SDS011;17263;48.160;11.452;2024-01-16T07:12:03;6.20;;;3.73;;
30472;SDS011;17263;48.160;11.452;2024-01-16T07:14:30;4.80;;;3.53;;
30472;SDS011;17263;48.160;11.452;2024-01-16T07:16:57;5.63;;;3.47;;
30472;SDS011;17263;48.160;11.452;2024-01-16T07:19:24;7.03;;;4.17;;
30472;SDS011;17263;48.160;11.452;2024-01-16T07:21:50;8.57;;;4.47;;
30472;SDS011;17263;48.160;11.452;2024-01-16T07:24:16;7.30;;;4.80;;
30472;SDS011;17263;48.160;11.452;2024-01-16T07:26:42;6.33;;;4.50;;
30472;SDS011;17263;48.160;11.452;2024-01-16T07:29:08;6.17;;;4.10;;
30472;SDS011;17263;48.160;11.452;2024-01-16T07:31:34;6.10;;;4.03;;
30472;SDS011;17263;48.160;11.452;2024-01-16T07:34:00;5.53;;;4.00;;
30472;SDS011;17263;48.160;11.452;2024-01-16T07:36:26;5.63;;;5.00;;
30472;SDS011;17263;48.160;11.452;2024-01-16T07:38:52;9.13;;;5.67;;
30472;SDS011;17263;48.160;11.452;2024-01-16T07:41:18;7.30;;;5.40;;
30472;SDS011;17263;48.160;11.452;2024-01-16T07:43:44;7.40;;;5.00;;
30472;SDS011;17263;48.160;11.452;2024-01-16T07:46:10;7.27;;;4.50;;
30472;SDS011;17263;48.160;11.452;2024-01-16T07:48:36;11.07;;;4.40;;
30472;SDS011;17263;48.160;11.452;2024-01-16T07:51:03;8.33;;;4.67;;
30472;SDS011;17263;48.160;11.452;2024-01-16T07:53:29;8.90;;;4.70;;
30472;SDS011;17263;48.160;11.452;2024-01-16T07:55:55;6.83;;;4.63;;
30472;SDS011;17263;48.160;11.452;2024-01-16T07:58:21;6.57;;;4.73;;
30472;SDS011;17263;48.160;11.452;2024-01-16T08:00:47;8.80;;;4.67;;
30472;SDS011;17263;48.160;11.452;2024-01-16T08:03:14;7.13;;;4.40;;
30472;SDS011;17263;48.160;11.452;2024-01-16T08:05:40;5.13;;;3.87;;
30472;SDS011;17263;48.160;11.452;2024-01-16T08:08:09;7.00;;;4.00;;
30472;SDS011;17263;48.160;11.452;2024-01-16T08:10:36;5.90;;;3.93;;
30472;SDS011;17263;48.160;11.452;2024-01-16T08:13:02;6.43;;;3.67;;
30472;SDS011;17263;48.160;11.452;2024-01-16T08:15:28;4.70;;;3.73;;
30472;SDS011;17263;48.160;11.452;2024-01-16T08:17:54;6.90;;;4.13;;
30472;SDS011;17263;48.160;11.452;2024-01-16T08:20:20;5.80;;;4.37;;
30472;SDS011;17263;48.160;11.452;2024-01-16T08:22:46;7.17;;;4.27;;
30472;SDS011;17263;48.160;11.452;2024-01-16T08:25:13;5.80;;;3.90;;
30472;SDS011;17263;48.160;11.452;2024-01-16T08:27:39;9.43;;;4.37;;
30472;SDS011;17263;48.160;11.452;2024-01-16T08:30:05;7.10;;;4.27;;
30472;SDS011;17263;48.160;11.452;2024-01-16T08:32:32;8.33;;;4.73;;
30472;SDS011;17263;48.160;11.452;2024-01-16T08:34:58;6.60;;;4.60;;
30472;SDS011;17263;48.160;11.452;2024-01-16T08:37:24;8.57;;;4.40;;
30472;SDS011;17263;48.160;11.452;2024-01-16T08:39:51;10.23;;;4.63;;
30472;SDS011;17263;48.160;11.452;2024-01-16T08:42:17;5.80;;;4.47;;
30472;SDS011;17263;48.160;11.452;2024-01-16T08:44:43;7.23;;;4.93;;
30472;SDS011;17263;48.160;11.452;2024-01-16T08:47:09;7.10;;;5.00;;
30472;SDS011;17263;48.160;11.452;2024-01-16T08:49:35;7.03;;;4.83;;
30472;SDS011;17263;48.160;11.452;2024-01-16T08:52:03;7.70;;;4.40;;
30472;SDS011;17263;48.160;11.452;2024-01-16T08:54:30;5.37;;;3.67;;
30472;SDS011;17263;48.160;11.452;2024-01-16T08:56:56;6.70;;;4.33;;
30472;SDS011;17263;48.160;11.452;2024-01-16T08:59:23;6.57;;;4.43;;
30472;SDS011;17263;48.160;11.452;2024-01-16T09:01:50;8.33;;;5.27;;
30472;SDS011;17263;48.160;11.452;2024-01-16T09:04:17;8.30;;;5.10;;
30472;SDS011;17263;48.160;11.452;2024-01-16T09:06:43;8.27;;;5.27;;
30472;SDS011;17263;48.160;11.452;2024-01-16T09:09:09;5.87;;;4.37;;
30472;SDS011;17263;48.160;11.452;2024-01-16T09:11:35;7.70;;;4.93;;
30472;SDS011;17263;48.160;11.452;2024-01-16T09:14:01;6.63;;;4.23;;
30472;SDS011;17263;48.160;11.452;2024-01-16T09:16:27;7.23;;;4.50;;
30472;SDS011;17263;48.160;11.452;2024-01-16T09:18:53;7.30;;;4.30;;
30472;SDS011;17263;48.160;11.452;2024-01-16T09:21:20;8.10;;;4.20;;
30472;SDS011;17263;48.160;11.452;2024-01-16T09:23:46;7.80;;;3.97;;
30472;SDS011;17263;48.160;11.452;2024-01-16T09:26:12;7.70;;;3.93;;
30472;SDS011;17263;48.160;11.452;2024-01-16T09:28:38;6.30;;;4.00;;
30472;SDS011;17263;48.160;11.452;2024-01-16T09:31:08;4.90;;;3.50;;
30472;SDS011;17263;48.160;11.452;2024-01-16T09:33:34;7.07;;;4.27;;
30472;SDS011;17263;48.160;11.452;2024-01-16T09:36:00;6.37;;;4.07;;
30472;SDS011;17263;48.160;11.452;2024-01-16T09:38:26;6.50;;;4.20;;
30472;SDS011;17263;48.160;11.452;2024-01-16T09:40:52;10.30;;;4.57;;
30472;SDS011;17263;48.160;11.452;2024-01-16T09:43:22;7.40;;;3.70;;
30472;SDS011;17263;48.160;11.452;2024-01-16T09:45:48;4.53;;;3.33;;
30472;SDS011;17263;48.160;11.452;2024-01-16T09:48:16;5.07;;;3.70;;
30472;SDS011;17263;48.160;11.452;2024-01-16T09:50:42;4.80;;;3.27;;
30472;SDS011;17263;48.160;11.452;2024-01-16T09:53:08;5.43;;;3.57;;
30472;SDS011;17263;48.160;11.452;2024-01-16T09:55:36;5.73;;;3.70;;
30472;SDS011;17263;48.160;11.452;2024-01-16T09:58:02;5.53;;;3.60;;
30472;SDS011;17263;48.160;11.452;2024-01-16T10:00:31;4.93;;;3.13;;
30472;SDS011;17263;48.160;11.452;2024-01-16T10:02:57;5.83;;;3.47;;
30472;SDS011;17263;48.160;11.452;2024-01-16T10:05:25;7.03;;;3.93;;
30472;SDS011;17263;48.160;11.452;2024-01-16T10:07:51;5.00;;;3.77;;
30472;SDS011;17263;48.160;11.452;2024-01-16T10:10:18;5.57;;;3.60;;
30472;SDS011;17263;48.160;11.452;2024-01-16T10:12:46;4.70;;;3.87;;
30472;SDS011;17263;48.160;11.452;2024-01-16T10:15:15;7.07;;;3.90;;
30472;SDS011;17263;48.160;11.452;2024-01-16T10:17:42;6.00;;;4.13;;
30472;SDS011;17263;48.160;11.452;2024-01-16T10:20:09;7.23;;;3.77;;
30472;SDS011;17263;48.160;11.452;2024-01-16T10:22:40;4.20;;;3.27;;
30472;SDS011;17263;48.160;11.452;2024-01-16T10:25:10;5.13;;;3.57;;
30472;SDS011;17263;48.160;11.452;2024-01-16T10:27:44;5.43;;;3.50;;
30472;SDS011;17263;48.160;11.452;2024-01-16T10:30:12;5.03;;;3.20;;
30472;SDS011;17263;48.160;11.452;2024-01-16T10:32:39;5.67;;;3.13;;
30472;SDS011;17263;48.160;11.452;2024-01-16T10:35:07;7.93;;;3.90;;
30472;SDS011;17263;48.160;11.452;2024-01-16T10:40:10;5.40;;;3.70;;
30472;SDS011;17263;48.160;11.452;2024-01-16T10:42:40;5.00;;;3.60;;
30472;SDS011;17263;48.160;11.452;2024-01-16T10:45:06;4.30;;;3.17;;
30472;SDS011;17263;48.160;11.452;2024-01-16T10:47:33;4.03;;;3.20;;
30472;SDS011;17263;48.160;11.452;2024-01-16T10:50:03;5.53;;;3.20;;
30472;SDS011;17263;48.160;11.452;2024-01-16T10:52:34;4.03;;;3.33;;
30472;SDS011;17263;48.160;11.452;2024-01-16T10:55:06;4.83;;;3.00;;
30472;SDS011;17263;48.160;11.452;2024-01-16T10:57:35;4.53;;;3.30;;
30472;SDS011;17263;48.160;11.452;2024-01-16T11:00:06;4.60;;;3.30;;
30472;SDS011;17263;48.160;11.452;2024-01-16T11:02:41;5.07;;;3.50;;
30472;SDS011;17263;48.160;11.452;2024-01-16T11:05:14;4.10;;;2.90;;
30472;SDS011;17263;48.160;11.452;2024-01-16T11:07:42;4.30;;;3.10;;
30472;SDS011;17263;48.160;11.452;2024-01-16T11:10:09;5.33;;;3.07;;
30472;SDS011;17263;48.160;11.452;2024-01-16T11:12:38;5.40;;;3.03;;
30472;SDS011;17263;48.160;11.452;2024-01-16T11:15:07;4.47;;;3.00;;
30472;SDS011;17263;48.160;11.452;2024-01-16T11:17:36;4.87;;;2.80;;
30472;SDS011;17263;48.160;11.452;2024-01-16T11:20:04;4.27;;;2.93;;
30472;SDS011;17263;48.160;11.452;2024-01-16T11:22:42;5.70;;;2.83;;
30472;SDS011;17263;48.160;11.452;2024-01-16T11:25:09;5.37;;;3.07;;
30472;SDS011;17263;48.160;11.452;2024-01-16T11:27:39;4.27;;;2.73;;
30472;SDS011;17263;48.160;11.452;2024-01-16T11:30:10;4.10;;;2.57;;
30472;SDS011;17263;48.160;11.452;2024-01-16T11:32:40;4.07;;;2.43;;
30472;SDS011;17263;48.160;11.452;2024-01-16T11:35:07;3.70;;;2.77;;
30472;SDS011;17263;48.160;11.452;2024-01-16T11:37:35;4.00;;;2.53;;
30472;SDS011;17263;48.160;11.452;2024-01-16T11:42:47;3.50;;;2.47;;
30472;SDS011;17263;48.160;11.452;2024-01-16T11:50:38;4.57;;;3.10;;
30472;SDS011;17263;48.160;11.452;2024-01-16T11:53:04;4.07;;;2.47;;
30472;SDS011;17263;48.160;11.452;2024-01-16T11:55:34;3.53;;;2.33;;
30472;SDS011;17263;48.160;11.452;2024-01-16T11:58:06;3.53;;;2.60;;
30472;SDS011;17263;48.160;11.452;2024-01-16T12:00:52;3.40;;;2.50;;
30472;SDS011;17263;48.160;11.452;2024-01-16T12:03:22;3.70;;;2.57;;
30472;SDS011;17263;48.160;11.452;2024-01-16T12:05:58;6.00;;;2.70;;
30472;SDS011;17263;48.160;11.452;2024-01-16T12:08:25;3.43;;;2.50;;
30472;SDS011;17263;48.160;11.452;2024-01-16T12:10:52;3.27;;;2.30;;
30472;SDS011;17263;48.160;11.452;2024-01-16T12:13:18;4.93;;;2.77;;
30472;SDS011;17263;48.160;11.452;2024-01-16T12:15:44;3.47;;;2.50;;
30472;SDS011;17263;48.160;11.452;2024-01-16T12:18:17;4.77;;;2.90;;
30472;SDS011;17263;48.160;11.452;2024-01-16T12:20:44;3.73;;;2.57;;
30472;SDS011;17263;48.160;11.452;2024-01-16T12:23:10;5.20;;;2.80;;
30472;SDS011;17263;48.160;11.452;2024-01-16T12:25:36;3.80;;;2.73;;
30472;SDS011;17263;48.160;11.452;2024-01-16T12:28:07;6.00;;;3.30;;
30472;SDS011;17263;48.160;11.452;2024-01-16T12:30:36;4.23;;;2.90;;
30472;SDS011;17263;48.160;11.452;2024-01-16T12:33:04;4.63;;;2.53;;
30472;SDS011;17263;48.160;11.452;2024-01-16T12:35:35;3.77;;;2.50;;
30472;SDS011;17263;48.160;11.452;2024-01-16T12:38:03;3.20;;;2.10;;
30472;SDS011;17263;48.160;11.452;2024-01-16T12:40:34;4.00;;;2.00;;
30472;SDS011;17263;48.160;11.452;2024-01-16T12:43:04;4.03;;;1.87;;
30472;SDS011;17263;48.160;11.452;2024-01-16T12:45:31;3.20;;;2.43;;
30472;SDS011;17263;48.160;11.452;2024-01-16T12:47:58;3.80;;;2.10;;
30472;SDS011;17263;48.160;11.452;2024-01-16T12:50:26;6.13;;;2.63;;
30472;SDS011;17263;48.160;11.452;2024-01-16T12:53:10;3.10;;;1.87;;
30472;SDS011;17263;48.160;11.452;2024-01-16T12:55:40;4.37;;;2.10;;
30472;SDS011;17263;48.160;11.452;2024-01-16T13:00:46;6.37;;;2.50;;
30472;SDS011;17263;48.160;11.452;2024-01-16T13:05:46;5.07;;;2.30;;
30472;SDS011;17263;48.160;11.452;2024-01-16T13:08:22;2.90;;;2.00;;
30472;SDS011;17263;48.160;11.452;2024-01-16T13:11:03;3.47;;;2.10;;
30472;SDS011;17263;48.160;11.452;2024-01-16T13:13:30;3.03;;;2.30;;
30472;SDS011;17263;48.160;11.452;2024-01-16T13:15:57;4.70;;;2.20;;
30472;SDS011;17263;48.160;11.452;2024-01-16T13:18:24;6.27;;;2.43;;
30472;SDS011;17263;48.160;11.452;2024-01-16T13:20:52;2.90;;;2.27;;
30472;SDS011;17263;48.160;11.452;2024-01-16T13:23:19;6.47;;;2.23;;
30472;SDS011;17263;48.160;11.452;2024-01-16T13:25:47;4.20;;;2.33;;
30472;SDS011;17263;48.160;11.452;2024-01-16T13:28:15;5.90;;;2.50;;
30472;SDS011;17263;48.160;11.452;2024-01-16T13:30:42;3.67;;;1.73;;
30472;SDS011;17263;48.160;11.452;2024-01-16T13:33:09;2.83;;;1.90;;
30472;SDS011;17263;48.160;11.452;2024-01-16T13:35:37;3.67;;;1.80;;
30472;SDS011;17263;48.160;11.452;2024-01-16T13:38:08;2.93;;;2.00;;
30472;SDS011;17263;48.160;11.452;2024-01-16T13:40:35;2.13;;;1.60;;
30472;SDS011;17263;48.160;11.452;2024-01-16T13:43:02;3.17;;;1.80;;
30472;SDS011;17263;48.160;11.452;2024-01-16T13:45:29;5.60;;;2.30;;
30472;SDS011;17263;48.160;11.452;2024-01-16T13:47:56;2.53;;;2.03;;
30472;SDS011;17263;48.160;11.452;2024-01-16T13:50:22;2.90;;;2.00;;
30472;SDS011;17263;48.160;11.452;2024-01-16T13:52:49;4.07;;;2.57;;
30472;SDS011;17263;48.160;11.452;2024-01-16T13:55:16;4.67;;;2.57;;
30472;SDS011;17263;48.160;11.452;2024-01-16T13:57:43;4.70;;;2.47;;
30472;SDS011;17263;48.160;11.452;2024-01-16T14:00:10;4.33;;;1.97;;
30472;SDS011;17263;48.160;11.452;2024-01-16T14:02:39;5.20;;;1.87;;
30472;SDS011;17263;48.160;11.452;2024-01-16T14:05:08;5.53;;;2.10;;
30472;SDS011;17263;48.160;11.452;2024-01-16T14:07:41;2.17;;;1.80;;
30472;SDS011;17263;48.160;11.452;2024-01-16T14:10:07;3.07;;;2.10;;
30472;SDS011;17263;48.160;11.452;2024-01-16T14:12:44;2.67;;;2.00;;
30472;SDS011;17263;48.160;11.452;2024-01-16T14:15:15;3.57;;;1.90;;
30472;SDS011;17263;48.160;11.452;2024-01-16T14:17:44;2.93;;;1.97;;
30472;SDS011;17263;48.160;11.452;2024-01-16T14:20:12;2.93;;;2.00;;
30472;SDS011;17263;48.160;11.452;2024-01-16T14:22:39;3.87;;;1.90;;
30472;SDS011;17263;48.160;11.452;2024-01-16T14:25:06;3.67;;;1.87;;
30472;SDS011;17263;48.160;11.452;2024-01-16T14:27:40;2.90;;;2.07;;
30472;SDS011;17263;48.160;11.452;2024-01-16T14:30:07;6.53;;;2.30;;
30472;SDS011;17263;48.160;11.452;2024-01-16T14:32:39;8.47;;;3.73;;
30472;SDS011;17263;48.160;11.452;2024-01-16T14:35:07;6.93;;;4.40;;
30472;SDS011;17263;48.160;11.452;2024-01-16T14:37:35;6.47;;;4.43;;
30472;SDS011;17263;48.160;11.452;2024-01-16T14:40:02;8.03;;;4.73;;
30472;SDS011;17263;48.160;11.452;2024-01-16T14:42:40;6.67;;;4.90;;
30472;SDS011;17263;48.160;11.452;2024-01-16T14:45:10;7.83;;;5.23;;
30472;SDS011;17263;48.160;11.452;2024-01-16T14:47:39;9.53;;;5.03;;